createdAt,value
2023-01-10T00:02:00.462Z,4.62
2023-01-10T00:04:32.182Z,4.62
2023-01-10T00:07:03.846Z,4.62
2023-01-10T00:09:35.480Z,4.62
2023-01-10T00:12:25.789Z,4.63
2023-01-10T00:14:57.495Z,4.61
2023-01-10T00:17:29.210Z,4.62
2023-01-10T00:20:00.914Z,4.61
2023-01-10T00:22:32.637Z,4.61
2023-01-10T00:25:04.827Z,4.61
2023-01-10T00:27:36.657Z,4.59
2023-01-10T00:30:17.877Z,4.57
2023-01-10T00:32:49.567Z,4.60
2023-01-10T00:35:21.396Z,4.61
2023-01-10T00:37:57.998Z,4.61
2023-01-10T00:40:29.725Z,4.59
2023-01-10T00:43:20.320Z,4.58
2023-01-10T00:45:51.938Z,4.55
2023-01-10T00:48:24.056Z,4.52
2023-01-10T00:50:56.073Z,4.45
2023-01-10T00:53:27.856Z,4.47
2023-01-10T00:55:59.530Z,4.42
2023-01-10T00:58:31.131Z,4.45
2023-01-10T01:01:02.862Z,4.42
2023-01-10T01:03:34.577Z,4.44
2023-01-10T01:06:07.733Z,4.46
2023-01-10T01:08:39.379Z,4.47
2023-01-10T01:11:11.170Z,4.45
2023-01-10T01:13:42.835Z,4.42
2023-01-10T01:16:14.620Z,4.44
2023-01-10T01:18:46.375Z,4.46
2023-01-10T01:21:18.574Z,4.45
2023-01-10T01:23:51.289Z,4.45
2023-01-10T01:26:24.461Z,4.43
2023-01-10T01:28:56.246Z,4.45
2023-01-10T01:31:27.901Z,4.44
2023-01-10T01:33:59.720Z,4.43
2023-01-10T01:36:31.372Z,4.38
2023-01-10T01:39:04.147Z,4.37
2023-01-10T01:41:54.536Z,4.35
2023-01-10T01:45:24.862Z,4.31
2023-01-10T01:48:24.938Z,4.23
2023-01-10T01:51:11.234Z,4.24
2023-01-10T01:54:15.412Z,4.18
2023-01-10T01:57:06.561Z,4.11
2023-01-10T01:59:44.916Z,4.09
2023-01-10T02:02:28.984Z,4.06
2023-01-10T02:05:04.009Z,3.99
2023-01-10T02:07:38.933Z,3.94
2023-01-10T02:10:52.899Z,3.96
2023-01-10T02:13:26.896Z,3.94
2023-01-10T02:15:58.708Z,3.92
2023-01-10T02:18:30.564Z,3.92
2023-01-10T02:21:07.816Z,3.91
2023-01-10T02:23:58.601Z,3.95
2023-01-10T02:26:59.035Z,3.94
2023-01-10T02:30:03.545Z,3.95
2023-01-10T02:33:00.547Z,3.96
2023-01-10T02:35:57.068Z,3.96
2023-01-10T02:38:50.858Z,3.98
2023-01-10T02:41:40.984Z,3.98
2023-01-10T02:44:44.898Z,3.92
2023-01-10T02:47:59.034Z,3.84
2023-01-10T02:50:50.553Z,3.74
2023-01-10T02:53:25.354Z,3.71
2023-01-10T02:56:09.732Z,3.68
2023-01-10T02:58:50.742Z,3.63
2023-01-10T03:01:37.916Z,3.61
2023-01-10T03:04:42.144Z,3.58
2023-01-10T03:08:00.141Z,3.60
2023-01-10T03:11:16.555Z,3.56
2023-01-10T03:14:30.819Z,3.58
2023-01-10T03:17:24.973Z,3.51
2023-01-10T03:20:39.012Z,3.50
2023-01-10T03:23:38.711Z,3.46
2023-01-10T03:26:29.741Z,3.41
2023-01-10T03:29:11.544Z,3.37
2023-01-10T03:32:06.051Z,3.33
2023-01-10T03:34:59.435Z,3.33
2023-01-10T03:38:06.393Z,3.29
2023-01-10T03:40:52.810Z,3.13
2023-01-10T03:44:08.278Z,3.07
2023-01-10T03:46:49.818Z,2.95
2023-01-10T03:50:21.722Z,2.92
2023-01-10T03:52:54.525Z,2.86
2023-01-10T03:55:31.261Z,2.79
2023-01-10T03:58:13.637Z,2.81
2023-01-10T04:00:45.768Z,2.83
2023-01-10T04:03:17.746Z,2.80
2023-01-10T04:05:49.945Z,2.84
2023-01-10T04:08:22.175Z,2.85
2023-01-10T04:10:54.062Z,2.91
2023-01-10T04:13:26.030Z,2.91
2023-01-10T04:16:02.366Z,2.95
2023-01-10T04:18:34.615Z,2.96
2023-01-10T04:21:07.477Z,3.00
2023-01-10T04:23:39.381Z,3.00
2023-01-10T04:26:11.810Z,3.00
2023-01-10T04:28:43.482Z,3.04
2023-01-10T04:31:15.680Z,3.09
2023-01-10T04:33:47.842Z,3.14
2023-01-10T04:36:21.491Z,3.12
2023-01-10T04:38:53.617Z,3.14
2023-01-10T04:41:30.318Z,3.20
2023-01-10T04:44:02.127Z,3.20
2023-01-10T04:46:59.140Z,3.25
2023-01-10T04:49:32.160Z,3.30
2023-01-10T04:52:04.271Z,3.36
2023-01-10T04:54:36.656Z,3.33
2023-01-10T04:57:08.331Z,3.35
2023-01-10T04:59:40.057Z,3.39
2023-01-10T05:02:11.901Z,3.41
2023-01-10T05:04:43.873Z,3.43
2023-01-10T05:07:15.627Z,3.45
2023-01-10T05:09:47.497Z,3.46
2023-01-10T05:12:19.185Z,3.46
2023-01-10T05:14:50.903Z,3.46
2023-01-10T05:17:22.570Z,3.46
2023-01-10T05:19:54.825Z,3.47
2023-01-10T05:22:26.533Z,3.47
2023-01-10T05:24:58.136Z,3.47
2023-01-10T05:27:29.896Z,3.48
2023-01-10T05:30:01.611Z,3.49
2023-01-10T05:32:33.275Z,3.53
2023-01-10T05:35:05.907Z,3.52
2023-01-10T05:37:38.203Z,3.53
2023-01-10T05:40:11.252Z,3.53
2023-01-10T05:42:43.122Z,3.52
2023-01-10T05:45:15.173Z,3.53
2023-01-10T05:47:48.974Z,3.53
2023-01-10T05:50:20.647Z,3.52
2023-01-10T05:52:52.423Z,3.51
2023-01-10T05:55:24.142Z,3.51
2023-01-10T05:57:55.801Z,3.50
2023-01-10T06:00:28.069Z,3.48
2023-01-10T06:02:59.792Z,3.46
2023-01-10T06:05:31.862Z,3.44
2023-01-10T06:08:03.665Z,3.43
2023-01-10T06:10:38.069Z,3.43
2023-01-10T06:13:09.948Z,3.42
2023-01-10T06:15:44.831Z,3.41
2023-01-10T06:18:19.287Z,3.39
2023-01-10T06:20:51.250Z,3.36
2023-01-10T06:23:30.472Z,3.35
2023-01-10T06:26:02.128Z,3.32
2023-01-10T06:28:36.231Z,3.30
2023-01-10T06:31:08.916Z,3.27
2023-01-10T06:33:41.713Z,3.24
2023-01-10T06:36:13.460Z,3.21
2023-01-10T06:38:45.223Z,3.17
2023-01-10T06:41:17.009Z,3.15
2023-01-10T06:43:51.806Z,3.11
2023-01-10T06:46:26.020Z,3.07
2023-01-10T06:48:57.604Z,3.04
2023-01-10T06:51:31.551Z,3.01
2023-01-10T06:54:03.351Z,2.99
2023-01-10T06:56:37.670Z,2.94
2023-01-10T06:59:12.528Z,2.88
2023-01-10T07:01:44.469Z,2.84
2023-01-10T07:04:16.284Z,2.79
2023-01-10T07:06:48.077Z,2.75
2023-01-10T07:09:20.137Z,2.71
2023-01-10T07:11:51.896Z,2.69
2023-01-10T07:14:23.649Z,2.68
2023-01-10T07:16:57.909Z,2.67
2023-01-10T07:19:29.668Z,2.69
2023-01-10T07:22:01.230Z,2.70
2023-01-10T07:24:35.908Z,2.71
2023-01-10T07:27:09.965Z,2.71
2023-01-10T07:29:41.669Z,2.71
2023-01-10T07:32:13.536Z,2.73
2023-01-10T07:34:48.152Z,2.71
2023-01-10T07:37:20.146Z,2.71
2023-01-10T07:39:56.312Z,2.73
2023-01-10T07:42:28.039Z,2.75
2023-01-10T07:44:59.695Z,2.77
2023-01-10T07:47:31.801Z,2.79
2023-01-10T07:50:06.700Z,2.80
2023-01-10T07:52:40.860Z,2.82
2023-01-10T07:55:12.865Z,2.83
2023-01-10T07:57:45.039Z,2.86
2023-01-10T08:00:19.094Z,2.89
2023-01-10T08:02:54.963Z,2.93
2023-01-10T08:05:26.949Z,2.98
2023-01-10T08:08:07.635Z,3.02
2023-01-10T08:10:42.721Z,3.05
2023-01-10T08:13:18.910Z,3.08
2023-01-10T08:15:52.076Z,3.12
2023-01-10T08:18:24.632Z,3.14
2023-01-10T08:20:56.274Z,3.17
2023-01-10T08:23:28.420Z,3.21
2023-01-10T08:26:00.204Z,3.25
2023-01-10T08:28:34.540Z,3.26
2023-01-10T08:31:10.381Z,3.30
2023-01-10T08:33:42.109Z,3.34
2023-01-10T08:36:18.848Z,3.40
2023-01-10T08:38:51.248Z,3.44
2023-01-10T08:41:23.231Z,3.46
2023-01-10T08:43:54.970Z,3.49
2023-01-10T08:46:27.079Z,3.49
2023-01-10T08:48:58.943Z,3.52
2023-01-10T08:51:31.977Z,3.55
2023-01-10T08:54:07.277Z,3.61
2023-01-10T08:56:41.992Z,3.70
2023-01-10T08:59:13.815Z,3.79
2023-01-10T09:01:47.980Z,3.84
2023-01-10T09:04:19.702Z,3.85
2023-01-10T09:06:51.426Z,3.87
2023-01-10T09:09:23.408Z,3.88
2023-01-10T09:11:55.134Z,3.90
2023-01-10T09:14:29.071Z,3.91
2023-01-10T09:17:00.859Z,3.94
2023-01-10T09:19:33.092Z,3.93
2023-01-10T09:22:04.856Z,3.91
2023-01-10T09:24:38.327Z,3.91
2023-01-10T09:27:11.541Z,3.92
2023-01-10T09:29:43.372Z,3.92
2023-01-10T09:32:15.578Z,3.93
2023-01-10T09:34:49.563Z,3.94
2023-01-10T09:37:21.231Z,3.96
2023-01-10T09:39:53.102Z,3.99
2023-01-10T09:42:42.460Z,4.00
2023-01-10T09:45:26.517Z,3.97
2023-01-10T09:48:05.540Z,3.94
2023-01-10T09:50:53.611Z,3.94
2023-01-10T09:53:30.251Z,3.95
2023-01-10T09:56:07.923Z,3.95
2023-01-10T09:58:39.911Z,3.93
2023-01-10T10:01:23.572Z,3.96
2023-01-10T10:04:15.396Z,3.96
2023-01-10T10:06:53.803Z,3.99
2023-01-10T10:09:31.514Z,4.06
2023-01-10T10:12:24.764Z,4.13
2023-01-10T10:14:56.501Z,4.18
2023-01-10T10:17:40.258Z,4.19
2023-01-10T10:20:32.176Z,4.20
2023-01-10T10:23:26.972Z,4.21
2023-01-10T10:25:58.546Z,4.25
2023-01-10T10:28:55.153Z,4.30
2023-01-10T10:31:40.674Z,4.38
2023-01-10T10:34:49.360Z,4.40
2023-01-10T10:37:39.326Z,4.42
2023-01-10T10:40:14.275Z,4.46
2023-01-10T10:42:51.018Z,4.53
2023-01-10T10:45:36.711Z,4.59
2023-01-10T10:48:30.676Z,4.68
2023-01-10T10:51:02.264Z,4.76
2023-01-10T10:53:34.619Z,4.79
2023-01-10T10:56:15.257Z,4.82
2023-01-10T10:58:53.871Z,4.86
2023-01-10T11:01:27.079Z,4.88
2023-01-10T11:04:02.531Z,4.91
2023-01-10T11:06:38.672Z,4.94
2023-01-10T11:09:12.643Z,4.99
2023-01-10T11:11:47.598Z,5.04
2023-01-10T11:14:49.558Z,5.08
2023-01-10T11:17:29.599Z,5.12
2023-01-10T11:20:17.156Z,5.17
2023-01-10T11:22:55.195Z,5.19
2023-01-10T11:25:26.986Z,5.19
2023-01-10T11:28:06.422Z,5.23
2023-01-10T11:30:38.216Z,5.25
2023-01-10T11:33:22.133Z,5.26
2023-01-10T11:36:00.488Z,5.26
2023-01-10T11:38:35.560Z,5.29
2023-01-10T11:41:19.260Z,5.26
2023-01-10T11:43:51.574Z,5.32
2023-01-10T11:46:25.897Z,5.36
2023-01-10T11:49:08.244Z,5.39
2023-01-10T11:51:47.589Z,5.43
2023-01-10T11:54:32.867Z,5.40
2023-01-10T11:57:19.042Z,5.36
2023-01-10T11:59:54.032Z,5.33
2023-01-10T12:02:37.348Z,5.31
2023-01-10T12:05:23.768Z,5.30
2023-01-10T12:08:08.053Z,5.30
2023-01-10T12:10:44.479Z,5.30
2023-01-10T12:13:17.507Z,5.29
2023-01-10T12:15:49.938Z,5.25
2023-01-10T12:18:21.707Z,5.23
2023-01-10T12:20:54.487Z,5.23
2023-01-10T12:23:30.750Z,5.25
2023-01-10T12:26:11.494Z,5.26
2023-01-10T12:28:53.738Z,5.27
2023-01-10T12:31:29.481Z,5.31
2023-01-10T12:34:07.800Z,5.34
2023-01-10T12:36:49.478Z,5.34
2023-01-10T12:39:33.965Z,5.34
2023-01-10T12:42:29.569Z,5.34
2023-01-10T12:45:23.771Z,5.35
2023-01-10T12:48:02.281Z,5.37
2023-01-10T12:50:40.361Z,5.35
2023-01-10T12:53:25.634Z,5.33
2023-01-10T12:56:04.418Z,5.30
2023-01-10T12:58:44.649Z,5.27
2023-01-10T13:01:24.576Z,5.22
2023-01-10T13:04:04.504Z,5.19
2023-01-10T13:06:45.596Z,5.15
2023-01-10T13:09:23.698Z,5.10
2023-01-10T13:12:05.580Z,5.08
2023-01-10T13:14:45.219Z,5.05
2023-01-10T13:17:29.383Z,5.02
2023-01-10T13:20:16.189Z,4.97
2023-01-10T13:22:53.172Z,4.93
2023-01-10T13:25:39.604Z,4.94
2023-01-10T13:28:22.798Z,4.95
2023-01-10T13:31:02.519Z,4.97
2023-01-10T13:33:57.638Z,4.99
2023-01-10T13:36:37.955Z,5.00
2023-01-10T13:39:40.829Z,5.01
2023-01-10T13:42:45.515Z,4.98
2023-01-10T13:45:29.104Z,4.96
2023-01-10T13:48:03.596Z,4.93
2023-01-10T13:50:42.238Z,4.91
2023-01-10T13:53:15.077Z,4.90
2023-01-10T13:55:56.507Z,4.87
2023-01-10T13:59:00.675Z,4.84
2023-01-10T14:01:56.825Z,4.82
2023-01-10T14:04:37.703Z,4.81
2023-01-10T14:07:25.882Z,4.81
2023-01-10T14:10:05.039Z,4.82
2023-01-10T14:12:57.967Z,4.74
2023-01-10T14:15:39.919Z,4.68
2023-01-10T14:18:23.127Z,4.60
2023-01-10T14:21:03.171Z,4.54
2023-01-10T14:23:38.840Z,4.50
2023-01-10T14:26:29.801Z,4.45
2023-01-10T14:29:14.123Z,4.40
2023-01-10T14:31:53.065Z,4.38
2023-01-10T14:34:30.689Z,4.37
2023-01-10T14:37:10.800Z,4.37
2023-01-10T14:39:43.960Z,4.35
2023-01-10T14:42:18.409Z,4.37
2023-01-10T14:45:01.921Z,4.37
2023-01-10T14:47:35.854Z,4.39
2023-01-10T14:50:24.361Z,4.42
2023-01-10T14:52:59.396Z,4.43
2023-01-10T14:55:31.707Z,4.43
2023-01-10T14:58:05.763Z,4.43
2023-01-10T15:00:37.545Z,4.43
2023-01-10T15:03:19.158Z,4.44
2023-01-10T15:05:58.045Z,4.45
2023-01-10T15:08:33.248Z,4.45
2023-01-10T15:11:09.379Z,4.45
2023-01-10T15:14:03.707Z,4.46
2023-01-10T15:16:40.723Z,4.47
2023-01-10T15:19:18.112Z,4.48
2023-01-10T15:21:50.373Z,4.48
2023-01-10T15:24:34.245Z,4.48
2023-01-10T15:27:13.148Z,4.49
2023-01-10T15:29:49.857Z,4.50
2023-01-10T15:32:35.479Z,4.51
2023-01-10T15:35:11.991Z,4.52
2023-01-10T15:37:59.943Z,4.52
2023-01-10T15:40:35.672Z,4.54
2023-01-10T15:43:14.084Z,4.55
2023-01-10T15:45:53.269Z,4.55
2023-01-10T15:48:33.847Z,4.54
2023-01-10T15:51:30.587Z,4.55
2023-01-10T15:54:05.625Z,4.55
2023-01-10T15:56:49.521Z,4.53
2023-01-10T15:59:28.644Z,4.55
2023-01-10T16:02:24.910Z,4.56
2023-01-10T16:05:12.448Z,4.56
2023-01-10T16:07:48.027Z,4.56
2023-01-10T16:10:27.147Z,4.57
2023-01-10T16:13:28.694Z,4.58
2023-01-10T16:16:05.031Z,4.59
2023-01-10T16:18:50.922Z,4.59
2023-01-10T16:21:23.030Z,4.59
2023-01-10T16:23:54.984Z,4.60
2023-01-10T16:26:29.036Z,4.59
2023-01-10T16:29:00.857Z,4.59
2023-01-10T16:31:32.634Z,4.60
2023-01-10T16:34:04.525Z,4.59
2023-01-10T16:36:38.214Z,4.61
2023-01-10T16:39:36.238Z,4.61
2023-01-10T16:42:31.159Z,4.61
2023-01-10T16:45:02.805Z,4.61
2023-01-10T16:47:34.919Z,4.62
2023-01-10T16:50:12.605Z,4.62
2023-01-10T16:52:44.305Z,4.63
2023-01-10T16:55:20.237Z,4.62
2023-01-10T16:57:52.179Z,4.62
2023-01-10T17:00:24.207Z,4.63
2023-01-10T17:03:05.289Z,4.63
2023-01-10T17:05:38.694Z,4.64
2023-01-10T17:08:19.799Z,4.62
2023-01-10T17:10:56.623Z,4.63
2023-01-10T17:13:34.376Z,4.64
2023-01-10T17:16:06.860Z,4.64
2023-01-10T17:18:39.636Z,4.64
2023-01-10T17:21:16.611Z,4.64
2023-01-10T17:23:51.268Z,4.64
2023-01-10T17:26:23.093Z,4.64
2023-01-10T17:28:55.467Z,4.63
2023-01-10T17:31:27.215Z,4.62
2023-01-10T17:34:15.055Z,4.62
2023-01-10T17:37:01.234Z,4.62
2023-01-10T17:39:46.509Z,4.61
2023-01-10T17:42:34.544Z,4.62
2023-01-10T17:45:30.924Z,4.63
2023-01-10T17:48:14.544Z,4.61
2023-01-10T17:54:04.047Z,4.60
2023-01-10T17:56:35.919Z,4.57
2023-01-10T17:59:07.926Z,4.56
2023-01-10T18:01:39.846Z,4.55
2023-01-10T18:04:11.822Z,4.54
2023-01-10T18:06:43.977Z,4.54
2023-01-10T18:09:15.619Z,4.52
2023-01-10T18:11:47.204Z,4.52
2023-01-10T18:14:37.386Z,4.52
2023-01-10T18:17:11.731Z,4.52
2023-01-10T18:19:44.628Z,4.52
2023-01-10T18:22:34.992Z,4.52
2023-01-10T18:25:07.584Z,4.52
2023-01-10T18:27:43.009Z,4.51
2023-01-10T18:30:19.135Z,4.48
2023-01-10T18:32:53.093Z,4.46
2023-01-10T18:35:26.417Z,4.45
2023-01-10T18:37:59.516Z,4.44
2023-01-10T18:40:31.373Z,4.42
2023-01-10T18:43:03.021Z,4.39
2023-01-10T18:45:38.911Z,4.38
2023-01-10T18:48:12.521Z,4.37
2023-01-10T18:50:44.878Z,4.36
2023-01-10T18:53:16.757Z,4.34
2023-01-10T18:56:04.457Z,4.32
2023-01-10T18:58:39.372Z,4.28
2023-01-10T19:01:20.112Z,4.22
2023-01-10T19:03:52.140Z,4.17
2023-01-10T19:06:24.372Z,4.11
2023-01-10T19:08:56.031Z,4.07
2023-01-10T19:11:27.664Z,4.00
2023-01-10T19:14:00.315Z,3.95
2023-01-10T19:16:32.674Z,3.88
2023-01-10T19:19:09.193Z,3.81
2023-01-10T19:21:42.487Z,3.77
2023-01-10T19:31:30.367Z,3.64
2023-01-10T19:34:02.137Z,3.60
2023-01-10T19:36:34.888Z,3.58
2023-01-10T19:39:07.252Z,3.57
2023-01-10T19:41:43.373Z,3.60
2023-01-10T19:44:16.753Z,3.62
2023-01-10T19:46:49.499Z,3.62
2023-01-10T19:49:21.351Z,3.58
2023-01-10T19:51:53.860Z,3.54
2023-01-10T19:54:25.800Z,3.48
2023-01-10T19:56:57.985Z,3.45
2023-01-10T19:59:32.714Z,3.39
2023-01-10T20:02:06.764Z,3.34
2023-01-10T20:04:38.531Z,3.29
2023-01-10T20:07:10.194Z,3.26
2023-01-10T20:09:42.284Z,3.22
2023-01-10T20:12:15.169Z,3.19
2023-01-10T20:14:48.564Z,3.15
2023-01-10T20:17:21.867Z,3.11
2023-01-10T20:19:56.124Z,3.08
2023-01-10T20:22:28.417Z,3.05
2023-01-10T20:25:00.998Z,3.02
2023-01-10T20:27:38.217Z,2.96
2023-01-10T20:30:14.196Z,2.87
2023-01-10T20:32:46.247Z,2.82
2023-01-10T20:35:22.443Z,2.78
2023-01-10T20:37:54.116Z,2.75
2023-01-10T20:40:26.295Z,2.73
2023-01-10T20:42:57.955Z,2.71
2023-01-10T20:45:32.373Z,2.67
2023-01-10T20:48:04.580Z,2.62
2023-01-10T20:50:39.912Z,2.59
2023-01-10T20:53:13.729Z,2.59
2023-01-10T20:55:56.258Z,2.58
2023-01-10T20:58:33.815Z,2.62
2023-01-10T21:01:08.248Z,2.66
2023-01-10T21:03:42.837Z,2.69
2023-01-10T21:06:16.479Z,2.72
2023-01-10T21:08:52.991Z,2.79
2023-01-10T21:11:24.874Z,2.86
2023-01-10T21:13:56.531Z,2.91
2023-01-10T21:16:31.330Z,2.94
2023-01-10T21:19:03.045Z,2.96
2023-01-10T21:21:34.796Z,2.95
2023-01-10T21:24:07.120Z,2.94
2023-01-10T21:26:38.889Z,2.91
2023-01-10T21:29:12.960Z,2.88
2023-01-10T21:31:45.042Z,2.87
2023-01-10T21:34:16.691Z,2.86
2023-01-10T21:36:48.435Z,2.86
2023-01-10T21:39:20.268Z,2.86
2023-01-10T21:42:10.570Z,2.87
2023-01-10T21:44:42.196Z,2.87
2023-01-10T21:47:16.055Z,2.88
2023-01-10T21:49:47.761Z,2.87
2023-01-10T21:52:19.519Z,2.89
2023-01-10T21:54:51.238Z,2.89
2023-01-10T21:57:23.570Z,2.90
2023-01-10T21:59:55.261Z,2.91
2023-01-10T22:02:32.200Z,2.91
2023-01-10T22:05:04.027Z,2.91
2023-01-10T22:07:35.944Z,2.90
2023-01-10T22:10:08.939Z,2.89
2023-01-10T22:12:40.694Z,2.87
2023-01-10T22:15:12.661Z,2.87
2023-01-10T22:17:48.325Z,2.87
2023-01-10T22:20:22.941Z,2.87
2023-01-10T22:22:54.605Z,2.87
2023-01-10T22:25:26.390Z,2.87
2023-01-10T22:27:58.094Z,2.88
2023-01-10T22:30:29.748Z,2.89
2023-01-10T22:33:01.931Z,2.90
2023-01-10T22:35:33.941Z,2.91
2023-01-10T22:38:05.536Z,2.94
2023-01-10T22:40:38.151Z,2.96
2023-01-10T22:43:09.927Z,2.97
2023-01-10T22:45:44.071Z,2.98
2023-01-10T22:48:15.997Z,2.97
2023-01-10T22:50:49.253Z,2.97
2023-01-10T22:53:21.153Z,2.94
2023-01-10T22:55:53.488Z,2.93
2023-01-10T22:58:28.445Z,2.90
2023-01-10T23:01:07.275Z,2.87
2023-01-10T23:03:39.032Z,2.86
2023-01-10T23:06:11.820Z,2.86
2023-01-10T23:08:44.443Z,2.84
2023-01-10T23:11:18.598Z,2.82
2023-01-10T23:13:50.310Z,2.79
2023-01-10T23:16:28.865Z,2.79
2023-01-10T23:19:01.171Z,2.79
2023-01-10T23:21:32.892Z,2.79
2023-01-10T23:24:04.896Z,2.79
2023-01-10T23:26:36.515Z,2.82
2023-01-10T23:29:08.483Z,2.85
2023-01-10T23:31:40.328Z,2.86
2023-01-10T23:34:12.023Z,2.88
2023-01-10T23:36:43.675Z,2.89
2023-01-10T23:39:19.056Z,2.91
2023-01-10T23:41:50.709Z,2.92
2023-01-10T23:44:22.555Z,2.93
2023-01-10T23:46:55.384Z,2.96
2023-01-10T23:49:27.000Z,2.97
2023-01-10T23:52:01.156Z,2.98
2023-01-10T23:54:33.059Z,3.00
2023-01-10T23:57:04.686Z,3.01
2023-01-10T23:59:39.215Z,3.03
